This is the latest recevied weather packets stored in our database for station/object KJ6APE. If no packets are shown the sender has not sent any weather packets the latest 10 day(s).
| Time | Temp. | Humidity | Pressure | Rain* | Wind** | Luminosity | Snow |
|---|---|---|---|---|---|---|---|
| 1778080880 | 16.11° C | 70% | 1021.2 hPa | 0 mm | - | 274 W/m² | - |
| 1778080579 | 16.11° C | 70% | 1021.1 hPa | 0 mm | - | 250 W/m² | - |
| 1778080275 | 16.11° C | 71% | 1020.9 hPa | 0 mm | - | 204 W/m² | - |
| 1778079972 | 15.56° C | 72% | 1021 hPa | 0 mm | - | 212 W/m² | - |
| 1778079669 | 16.11° C | 71% | 1021 hPa | 0 mm | - | 166 W/m² | - |
| 1778079366 | 16.11° C | 71% | 1020.9 hPa | 0 mm | - | 171 W/m² | - |
| 1778079063 | 15.56° C | 72% | 1020.9 hPa | 0 mm | - | 157 W/m² | - |
| 1778078759 | 15° C | 76% | 1021 hPa | 0 mm | - | 143 W/m² | - |
| 1778078456 | 13.89° C | 79% | 1020.9 hPa | 0 mm | - | 91 W/m² | - |
| 1778078155 | 13.89° C | 80% | 1021.1 hPa | 0 mm | - | 98 W/m² | - |
| 1778077852 | 13.33° C | 81% | 1020.9 hPa | 0 mm | - | 83 W/m² | - |
| 1778077550 | 13.33° C | 82% | 1020.8 hPa | 0 mm | - | 71 W/m² | - |
| 1778077248 | 13.33° C | 82% | 1020.5 hPa | 0 mm | - | 66 W/m² | - |
| 1778076945 | 13.33° C | 84% | 1020.8 hPa | 0 mm | - | 59 W/m² | - |
| 1778076644 | 12.78° C | 85% | 1020.7 hPa | 0 mm | - | 60 W/m² | - |
| 1778076341 | 12.78° C | 85% | 1020.8 hPa | 0 mm | - | 60 W/m² | - |
| 1778076038 | 12.78° C | 86% | 1020.4 hPa | 0 mm | - | 51 W/m² | - |
| 1778075735 | 12.78° C | 86% | 1020.4 hPa | 0 mm | - | 44 W/m² | - |
| 1778075431 | 12.22° C | 87% | 1020.3 hPa | 0 mm | - | 42 W/m² | - |
| 1778075127 | 12.22° C | 87% | 1020.5 hPa | 0 mm | - | 39 W/m² | - |
| 1778074824 | 12.22° C | 87% | 1020.4 hPa | 0 mm | - | 30 W/m² | - |
| 1778074521 | 12.22° C | 88% | 1020.3 hPa | 0 mm | - | 25 W/m² | - |
| 1778074218 | 12.22° C | 87% | 1020.4 hPa | 0 mm | - | 19 W/m² | - |
| 1778073915 | 12.22° C | 87% | 1020.2 hPa | 0 mm | - | 15 W/m² | - |
| 1778073612 | 12.22° C | 87% | 1020.2 hPa | 0 mm | - | 11 W/m² | - |
* Rain latest hour (hover to see other rain measurements)
** Current wind speed in m/s (hover to see current wind gust speed)